createdAt,value
2023-05-16T00:00:01.213Z,14.74
2023-05-16T00:02:32.010Z,14.74
2023-05-16T00:05:04.599Z,14.72
2023-05-16T00:07:35.856Z,14.72
2023-05-16T00:10:07.431Z,14.72
2023-05-16T00:12:39.644Z,14.72
2023-05-16T00:15:14.272Z,14.71
2023-05-16T00:17:46.791Z,14.69
2023-05-16T00:20:19.151Z,14.66
2023-05-16T00:22:49.616Z,14.63
2023-05-16T00:25:20.130Z,14.61
2023-05-16T00:27:50.739Z,14.58
2023-05-16T00:30:22.869Z,14.56
2023-05-16T00:32:57.062Z,14.56
2023-05-16T00:35:27.744Z,14.57
2023-05-16T00:37:58.313Z,14.55
2023-05-16T00:40:29.055Z,14.56
2023-05-16T00:42:59.851Z,14.55
2023-05-16T00:45:30.998Z,14.54
2023-05-16T00:48:01.664Z,14.54
2023-05-16T00:50:34.499Z,14.53
2023-05-16T00:53:05.458Z,14.52
2023-05-16T00:55:36.273Z,14.50
2023-05-16T00:58:42.977Z,14.47
2023-05-16T01:01:14.390Z,14.45
2023-05-16T01:03:47.188Z,14.42
2023-05-16T01:06:17.701Z,14.41
2023-05-16T01:08:48.253Z,14.42
2023-05-16T01:11:28.085Z,14.43
2023-05-16T01:14:10.818Z,14.43
2023-05-16T01:16:48.923Z,14.43
2023-05-16T01:19:44.128Z,14.44
2023-05-16T01:22:47.777Z,14.44
2023-05-16T01:25:33.812Z,14.45
2023-05-16T01:28:05.725Z,14.46
2023-05-16T01:30:38.077Z,14.44
2023-05-16T01:33:08.914Z,14.42
2023-05-16T01:35:45.665Z,14.39
2023-05-16T01:38:21.859Z,14.38
2023-05-16T01:40:59.347Z,14.35
2023-05-16T01:43:38.377Z,14.33
2023-05-16T01:46:21.795Z,14.36
2023-05-16T01:49:17.316Z,14.38
2023-05-16T01:51:55.430Z,14.40
2023-05-16T01:54:31.512Z,14.42
2023-05-16T01:57:05.431Z,14.43
2023-05-16T01:59:37.029Z,14.43
2023-05-16T02:02:07.534Z,14.42
2023-05-16T02:04:38.022Z,14.40
2023-05-16T02:07:08.722Z,14.39
2023-05-16T02:09:39.175Z,14.36
2023-05-16T02:12:11.547Z,14.34
2023-05-16T02:14:42.171Z,14.31
2023-05-16T02:17:12.720Z,14.30
2023-05-16T02:19:43.788Z,14.27
2023-05-16T02:22:13.730Z,14.26
2023-05-16T02:24:45.110Z,14.25
2023-05-16T02:27:15.906Z,14.26
2023-05-16T02:29:46.466Z,14.24
2023-05-16T02:32:17.718Z,14.24
2023-05-16T02:34:48.247Z,14.22
2023-05-16T02:37:18.780Z,14.19
2023-05-16T02:39:49.237Z,14.14
2023-05-16T02:42:19.949Z,14.11
2023-05-16T02:44:50.416Z,14.08
2023-05-16T02:47:21.856Z,14.05
2023-05-16T02:49:53.372Z,14.03
2023-05-16T02:52:24.015Z,14.02
2023-05-16T02:57:28.133Z,14.00
2023-05-16T02:59:59.864Z,13.98
2023-05-16T03:02:30.817Z,14.00
2023-05-16T03:05:01.702Z,14.02
2023-05-16T03:07:32.170Z,14.00
2023-05-16T03:10:02.619Z,13.99
2023-05-16T03:12:33.155Z,13.99
2023-05-16T03:15:04.190Z,13.97
2023-05-16T03:17:34.796Z,13.97
2023-05-16T03:20:09.412Z,13.96
2023-05-16T03:22:40.525Z,13.96
2023-05-16T03:25:11.758Z,13.96
2023-05-16T03:27:44.767Z,13.97
2023-05-16T03:30:17.079Z,13.96
2023-05-16T03:32:48.991Z,13.95
2023-05-16T03:35:19.681Z,13.94
2023-05-16T03:37:50.247Z,13.92
2023-05-16T03:40:23.007Z,13.93
2023-05-16T03:42:53.426Z,13.95
2023-05-16T03:45:24.169Z,13.95
2023-05-16T03:47:54.818Z,13.95
2023-05-16T03:50:25.867Z,13.95
2023-05-16T03:52:56.577Z,13.95
2023-05-16T03:55:27.364Z,13.94
2023-05-16T03:57:58.317Z,13.94
2023-05-16T04:00:29.213Z,13.93
2023-05-16T04:02:59.763Z,13.92
2023-05-16T04:05:30.623Z,13.92
2023-05-16T04:08:01.334Z,13.90
2023-05-16T04:10:32.152Z,13.89
2023-05-16T04:13:02.550Z,13.87
2023-05-16T04:15:33.097Z,13.87
2023-05-16T04:18:05.293Z,13.91
2023-05-16T04:20:36.730Z,13.95
2023-05-16T04:23:07.195Z,13.97
2023-05-16T04:25:37.707Z,13.98
2023-05-16T04:28:08.291Z,13.99
2023-05-16T04:30:39.044Z,14.01
2023-05-16T04:33:09.538Z,14.02
2023-05-16T04:35:41.509Z,14.03
2023-05-16T04:38:12.075Z,14.04
2023-05-16T04:40:43.333Z,14.07
2023-05-16T04:43:13.802Z,14.09
2023-05-16T04:45:44.324Z,14.09
2023-05-16T04:48:15.514Z,14.10
2023-05-16T04:50:46.012Z,14.14
2023-05-16T04:53:16.549Z,14.19
2023-05-16T04:55:47.527Z,14.23
2023-05-16T04:58:18.049Z,14.26
2023-05-16T05:00:48.538Z,14.28
2023-05-16T05:03:19.190Z,14.30
2023-05-16T05:05:49.916Z,14.31
2023-05-16T05:08:20.705Z,14.31
2023-05-16T05:10:51.626Z,14.32
2023-05-16T05:13:22.144Z,14.32
2023-05-16T05:15:53.151Z,14.31
2023-05-16T05:18:23.707Z,14.32
2023-05-16T05:20:54.199Z,14.33
2023-05-16T05:23:24.878Z,14.37
2023-05-16T05:25:55.476Z,14.40
2023-05-16T05:28:25.899Z,14.42
2023-05-16T05:30:56.351Z,14.46
2023-05-16T05:33:29.735Z,14.48
2023-05-16T05:36:03.293Z,14.47
2023-05-16T05:38:34.562Z,14.48
2023-05-16T05:41:05.006Z,14.50
2023-05-16T05:43:35.568Z,14.51
2023-05-16T05:46:06.736Z,14.53
2023-05-16T05:48:37.447Z,14.56
2023-05-16T05:51:08.280Z,14.58
2023-05-16T05:53:38.913Z,14.64
2023-05-16T05:56:09.633Z,14.67
2023-05-16T05:58:41.900Z,14.70
2023-05-16T06:01:13.271Z,14.73
2023-05-16T06:03:44.020Z,14.76
2023-05-16T06:06:15.660Z,14.80
2023-05-16T06:08:46.296Z,14.83
2023-05-16T06:11:16.758Z,14.87
2023-05-16T06:13:47.271Z,14.89
2023-05-16T06:16:17.985Z,14.92
2023-05-16T06:18:48.949Z,14.94
2023-05-16T06:21:19.558Z,14.99
2023-05-16T06:23:50.110Z,15.04
2023-05-16T06:26:22.673Z,15.08
2023-05-16T06:28:53.305Z,15.14
2023-05-16T06:31:23.836Z,15.18
2023-05-16T06:33:54.475Z,15.23
2023-05-16T06:36:25.370Z,15.26
2023-05-16T06:38:55.864Z,15.29
2023-05-16T06:41:26.423Z,15.28
2023-05-16T06:43:56.936Z,15.30
2023-05-16T06:46:38.369Z,15.31
2023-05-16T06:49:09.011Z,15.32
2023-05-16T06:51:40.614Z,15.37
2023-05-16T06:54:11.148Z,15.42
2023-05-16T06:56:42.012Z,15.46
2023-05-16T06:59:12.479Z,15.50
2023-05-16T07:01:43.072Z,15.55
2023-05-16T07:04:13.661Z,15.58
2023-05-16T07:06:44.347Z,15.62
2023-05-16T07:09:14.850Z,15.63
2023-05-16T07:11:45.345Z,15.65
2023-05-16T07:14:15.963Z,15.66
2023-05-16T07:16:46.875Z,15.67
2023-05-16T07:19:17.462Z,15.67
2023-05-16T07:21:47.998Z,15.67
2023-05-16T07:24:18.554Z,15.67
2023-05-16T07:26:49.118Z,15.71
2023-05-16T07:29:19.774Z,15.75
2023-05-16T07:31:50.238Z,15.79
2023-05-16T07:34:20.772Z,15.81
2023-05-16T07:36:54.278Z,15.83
2023-05-16T07:39:24.753Z,15.84
2023-05-16T07:41:55.266Z,15.87
2023-05-16T07:44:25.775Z,15.89
2023-05-16T07:46:56.253Z,15.92
2023-05-16T07:49:27.096Z,15.94
2023-05-16T07:51:57.618Z,15.96
2023-05-16T07:54:28.099Z,15.99
2023-05-16T07:56:58.637Z,16.04
2023-05-16T07:59:29.550Z,16.10
2023-05-16T08:02:00.430Z,16.16
2023-05-16T08:04:31.016Z,16.21
2023-05-16T08:07:01.536Z,16.26
2023-05-16T08:09:32.050Z,16.29
2023-05-16T08:12:03.590Z,16.32
2023-05-16T08:14:33.114Z,16.32
2023-05-16T08:17:03.632Z,16.30
2023-05-16T08:19:34.135Z,16.29
2023-05-16T08:22:07.863Z,16.28
2023-05-16T08:24:38.676Z,16.27
2023-05-16T08:27:09.708Z,16.28
2023-05-16T08:29:40.220Z,16.29
2023-05-16T08:32:11.388Z,16.32
2023-05-16T08:34:42.551Z,16.36
2023-05-16T08:37:13.754Z,16.40
2023-05-16T08:39:45.027Z,16.43
2023-05-16T08:42:15.993Z,16.45
2023-05-16T08:44:46.597Z,16.49
2023-05-16T08:47:22.914Z,16.53
2023-05-16T08:49:57.164Z,16.57
2023-05-16T08:52:33.414Z,16.59
2023-05-16T08:55:10.963Z,16.61
2023-05-16T08:57:43.675Z,16.64
2023-05-16T09:00:16.266Z,16.65
2023-05-16T09:02:47.285Z,16.65
2023-05-16T09:05:19.040Z,16.65
2023-05-16T09:07:49.490Z,16.64
2023-05-16T09:10:20.318Z,16.64
2023-05-16T09:12:51.033Z,16.63
2023-05-16T09:15:22.493Z,16.61
2023-05-16T09:17:53.065Z,16.61
2023-05-16T09:20:23.812Z,16.63
2023-05-16T09:22:55.955Z,16.65
2023-05-16T09:25:30.774Z,16.67
2023-05-16T09:28:03.535Z,16.67
2023-05-16T09:30:37.235Z,16.69
2023-05-16T09:33:09.316Z,16.71
2023-05-16T09:35:45.313Z,16.73
2023-05-16T09:38:19.909Z,16.74
2023-05-16T09:40:51.433Z,16.77
2023-05-16T09:43:26.338Z,16.81
2023-05-16T09:46:00.499Z,16.84
2023-05-16T09:48:31.318Z,16.88
2023-05-16T09:51:04.768Z,16.92
2023-05-16T09:53:36.086Z,16.94
2023-05-16T09:56:08.888Z,16.97
2023-05-16T09:58:40.714Z,17.01
2023-05-16T10:01:12.376Z,17.07
2023-05-16T10:03:44.228Z,17.13
2023-05-16T10:06:16.728Z,17.19
2023-05-16T10:08:48.806Z,17.24
2023-05-16T10:11:21.761Z,17.31
2023-05-16T10:13:54.198Z,17.37
2023-05-16T10:16:25.615Z,17.44
2023-05-16T10:18:57.106Z,17.51
2023-05-16T10:21:29.709Z,17.57
2023-05-16T10:24:04.986Z,17.62
2023-05-16T10:26:36.319Z,17.67
2023-05-16T10:29:08.213Z,17.69
2023-05-16T10:31:39.443Z,17.71
2023-05-16T10:34:10.375Z,17.70
2023-05-16T10:36:41.487Z,17.68
2023-05-16T10:39:13.019Z,17.68
2023-05-16T10:41:44.291Z,17.67
2023-05-16T10:44:18.237Z,17.67
2023-05-16T10:46:49.509Z,17.66
2023-05-16T10:49:27.755Z,17.69
2023-05-16T10:52:13.368Z,17.72
2023-05-16T10:54:45.533Z,17.73
2023-05-16T10:57:22.122Z,17.73
2023-05-16T10:59:53.944Z,17.75
2023-05-16T11:02:29.947Z,17.76
2023-05-16T11:05:02.204Z,17.77
2023-05-16T11:07:36.716Z,17.80
2023-05-16T11:10:09.586Z,17.84
2023-05-16T11:12:43.974Z,17.86
2023-05-16T11:15:23.189Z,17.89
2023-05-16T11:18:04.937Z,17.90
2023-05-16T11:20:37.173Z,17.90
2023-05-16T11:23:27.577Z,17.89
2023-05-16T11:26:00.826Z,17.87
2023-05-16T11:28:31.493Z,17.84
2023-05-16T11:31:05.661Z,17.83
2023-05-16T11:33:37.144Z,17.81
2023-05-16T11:38:44.180Z,17.76
2023-05-16T11:41:17.709Z,17.75
2023-05-16T11:43:48.240Z,17.74
2023-05-16T11:46:18.964Z,17.74
2023-05-16T11:48:49.636Z,17.75
2023-05-16T11:51:23.176Z,17.77
2023-05-16T11:53:53.861Z,17.80
2023-05-16T11:56:24.925Z,17.81
2023-05-16T11:58:56.435Z,17.79
2023-05-16T12:01:28.789Z,17.76
2023-05-16T12:03:59.923Z,17.75
2023-05-16T12:06:31.521Z,17.71
2023-05-16T12:09:04.156Z,17.68
2023-05-16T12:11:34.688Z,17.66
2023-05-16T12:14:05.392Z,17.65
2023-05-16T12:16:37.824Z,17.63
2023-05-16T12:19:09.643Z,17.61
2023-05-16T12:21:39.770Z,17.58
2023-05-16T12:24:13.336Z,17.54
2023-05-16T12:26:44.728Z,17.53
2023-05-16T12:29:15.991Z,17.51
2023-05-16T12:31:47.349Z,17.48
2023-05-16T12:34:23.398Z,17.45
2023-05-16T12:36:57.471Z,17.42
2023-05-16T12:39:27.954Z,17.42
2023-05-16T12:41:58.465Z,17.40
2023-05-16T12:44:32.596Z,17.38
2023-05-16T12:47:03.396Z,17.36
2023-05-16T12:49:35.722Z,17.37
2023-05-16T12:52:08.035Z,17.36
2023-05-16T12:54:38.882Z,17.34
2023-05-16T12:57:10.349Z,17.34
2023-05-16T12:59:40.899Z,17.34
2023-05-16T13:02:13.876Z,17.33
2023-05-16T13:04:44.460Z,17.32
2023-05-16T13:07:15.257Z,17.31
2023-05-16T13:09:45.836Z,17.28
2023-05-16T13:12:16.320Z,17.24
2023-05-16T13:14:46.828Z,17.21
2023-05-16T13:17:17.823Z,17.19
2023-05-16T13:19:49.050Z,17.14
2023-05-16T13:22:19.911Z,17.07
2023-05-16T13:24:50.748Z,17.02
2023-05-16T13:27:21.251Z,16.99
2023-05-16T13:29:51.789Z,16.98
2023-05-16T13:32:22.437Z,16.98
2023-05-16T13:34:53.021Z,16.99
2023-05-16T13:37:24.653Z,17.01
2023-05-16T13:39:56.134Z,17.01
2023-05-16T13:42:26.930Z,17.00
2023-05-16T13:44:57.412Z,16.98
2023-05-16T13:47:28.004Z,16.96
2023-05-16T13:49:58.561Z,16.96
2023-05-16T13:52:29.087Z,16.95
2023-05-16T13:54:59.622Z,16.95
2023-05-16T13:57:30.624Z,16.93
2023-05-16T14:02:43.148Z,16.87
2023-05-16T14:05:14.064Z,16.83
2023-05-16T14:07:46.768Z,16.81
2023-05-16T14:10:17.606Z,16.82
2023-05-16T14:12:49.234Z,16.82
2023-05-16T14:15:19.773Z,16.80
2023-05-16T14:17:50.387Z,16.80
2023-05-16T14:20:21.015Z,16.78
2023-05-16T14:22:51.573Z,16.74
2023-05-16T14:25:22.103Z,16.73
2023-05-16T14:27:52.666Z,16.67
2023-05-16T14:30:23.834Z,16.60
2023-05-16T14:32:54.486Z,16.51
2023-05-16T14:35:25.240Z,16.46
2023-05-16T14:37:55.876Z,16.42
2023-05-16T14:40:26.631Z,16.40
2023-05-16T14:42:57.242Z,16.37
2023-05-16T14:45:28.303Z,16.34
2023-05-16T14:47:59.528Z,16.28
2023-05-16T14:50:30.072Z,16.21
2023-05-16T14:53:01.076Z,16.17
2023-05-16T14:55:31.984Z,16.14
2023-05-16T14:58:02.563Z,16.12
2023-05-16T15:00:33.112Z,16.09
2023-05-16T15:03:03.710Z,16.08
2023-05-16T15:05:34.802Z,16.10
2023-05-16T15:08:06.036Z,16.12
2023-05-16T15:10:36.963Z,16.09
2023-05-16T15:13:07.462Z,16.09
2023-05-16T15:15:38.935Z,16.06
2023-05-16T15:18:11.266Z,16.05
2023-05-16T15:20:42.168Z,16.01
2023-05-16T15:23:13.891Z,15.99
2023-05-16T15:25:44.995Z,15.98
2023-05-16T15:28:15.604Z,15.98
2023-05-16T15:30:46.181Z,15.99
2023-05-16T15:33:16.739Z,16.00
2023-05-16T15:35:48.586Z,16.00
2023-05-16T15:38:19.127Z,15.98
2023-05-16T15:40:52.786Z,15.98
2023-05-16T15:43:31.826Z,15.96
2023-05-16T15:46:02.380Z,15.92
2023-05-16T15:48:33.062Z,15.85
2023-05-16T15:51:03.748Z,15.82
2023-05-16T15:53:34.241Z,15.83
2023-05-16T15:56:04.795Z,15.85
2023-05-16T15:58:35.284Z,15.84
2023-05-16T16:01:06.054Z,15.84
2023-05-16T16:03:36.754Z,15.81
2023-05-16T16:06:07.741Z,15.83
2023-05-16T16:08:38.273Z,15.85
2023-05-16T16:11:09.255Z,15.87
2023-05-16T16:13:39.757Z,15.88
2023-05-16T16:16:10.591Z,15.86
2023-05-16T16:18:41.130Z,15.84
2023-05-16T16:21:12.114Z,15.85
2023-05-16T16:23:43.244Z,15.85
2023-05-16T16:26:13.744Z,15.84
2023-05-16T16:28:44.243Z,15.83
2023-05-16T16:31:15.128Z,15.84
2023-05-16T16:33:49.065Z,15.85
2023-05-16T16:36:19.884Z,15.83
2023-05-16T16:38:50.424Z,15.80
2023-05-16T16:41:20.956Z,15.81
2023-05-16T16:43:53.008Z,15.81
2023-05-16T16:46:23.738Z,15.82
2023-05-16T16:48:54.919Z,15.82
2023-05-16T16:51:25.589Z,15.82
2023-05-16T16:53:58.106Z,15.81
2023-05-16T16:56:30.064Z,15.80
2023-05-16T16:59:00.590Z,15.77
2023-05-16T17:01:32.101Z,15.72
2023-05-16T17:04:03.104Z,15.67
2023-05-16T17:06:33.599Z,15.60
2023-05-16T17:09:06.900Z,15.57
2023-05-16T17:11:40.494Z,15.55
2023-05-16T17:14:11.882Z,15.55
2023-05-16T17:16:42.472Z,15.55
2023-05-16T17:19:13.057Z,15.53
2023-05-16T17:21:44.520Z,15.54
2023-05-16T17:24:15.707Z,15.53
2023-05-16T17:26:46.235Z,15.54
2023-05-16T17:29:16.741Z,15.50
2023-05-16T17:31:47.201Z,15.48
2023-05-16T17:34:17.727Z,15.46
2023-05-16T17:36:48.393Z,15.41
2023-05-16T17:39:20.056Z,15.39
2023-05-16T17:41:50.648Z,15.41
2023-05-16T17:44:22.174Z,15.41
2023-05-16T17:46:53.764Z,15.42
2023-05-16T17:49:25.593Z,15.41
2023-05-16T17:51:58.207Z,15.40
2023-05-16T17:54:31.153Z,15.37
2023-05-16T17:57:02.861Z,15.36
2023-05-16T17:59:33.404Z,15.36
2023-05-16T18:02:04.202Z,15.34
2023-05-16T18:04:34.683Z,15.32
2023-05-16T18:07:07.283Z,15.33
2023-05-16T18:09:37.850Z,15.32
2023-05-16T18:12:09.606Z,15.31
2023-05-16T18:14:40.173Z,15.31
2023-05-16T18:17:10.673Z,15.30
2023-05-16T18:19:41.432Z,15.29
2023-05-16T18:22:13.228Z,15.28
2023-05-16T18:24:44.718Z,15.26
2023-05-16T18:27:16.171Z,15.27
2023-05-16T18:29:46.765Z,15.27
2023-05-16T18:32:17.382Z,15.26
2023-05-16T18:34:48.070Z,15.26
2023-05-16T18:37:18.708Z,15.27
2023-05-16T18:39:49.697Z,15.26
2023-05-16T18:42:20.493Z,15.25
2023-05-16T18:44:51.533Z,15.23
2023-05-16T18:47:22.294Z,15.16
2023-05-16T18:49:53.222Z,15.12
2023-05-16T18:52:23.818Z,15.12
2023-05-16T18:54:54.288Z,15.14
2023-05-16T18:57:24.834Z,15.14
2023-05-16T18:59:56.549Z,15.13
2023-05-16T19:02:37.911Z,15.13
2023-05-16T19:05:14.465Z,15.12
2023-05-16T19:07:45.393Z,15.13
2023-05-16T19:10:15.897Z,15.10
2023-05-16T19:12:49.121Z,15.07
2023-05-16T19:15:19.886Z,15.08
2023-05-16T19:17:50.444Z,15.10
2023-05-16T19:20:21.099Z,15.10
2023-05-16T19:22:51.665Z,15.09
2023-05-16T19:25:22.282Z,15.09
2023-05-16T19:27:52.830Z,15.09
2023-05-16T19:30:24.127Z,15.08
2023-05-16T19:32:54.607Z,15.05
2023-05-16T19:35:25.447Z,15.03
2023-05-16T19:37:56.481Z,14.99
2023-05-16T19:40:27.117Z,14.99
2023-05-16T19:42:57.744Z,14.99
2023-05-16T19:45:28.404Z,14.98
2023-05-16T19:47:59.251Z,14.98
2023-05-16T19:50:30.042Z,14.98
2023-05-16T19:53:00.578Z,14.98
2023-05-16T19:55:31.620Z,14.96
2023-05-16T19:58:02.358Z,14.93
2023-05-16T20:00:33.150Z,14.91
2023-05-16T20:03:03.765Z,14.92
2023-05-16T20:05:34.627Z,14.95
2023-05-16T20:08:05.257Z,14.95
2023-05-16T20:10:36.280Z,14.94
2023-05-16T20:13:06.827Z,14.94
2023-05-16T20:15:37.627Z,14.93
2023-05-16T20:18:09.737Z,14.91
2023-05-16T20:20:40.386Z,14.89
2023-05-16T20:23:10.942Z,14.86
2023-05-16T20:25:41.520Z,14.86
2023-05-16T20:28:12.047Z,14.87
2023-05-16T20:30:42.550Z,14.85
2023-05-16T20:33:13.083Z,14.85
2023-05-16T20:35:43.601Z,14.85
2023-05-16T20:38:14.172Z,14.84
2023-05-16T20:40:44.689Z,14.83
2023-05-16T20:43:15.168Z,14.82
2023-05-16T20:45:46.231Z,14.81
2023-05-16T20:48:16.981Z,14.80
2023-05-16T20:50:47.731Z,14.81
2023-05-16T20:53:18.623Z,14.82
2023-05-16T20:55:49.108Z,14.81
2023-05-16T20:58:20.053Z,14.80
2023-05-16T21:00:50.956Z,14.80
2023-05-16T21:03:22.586Z,14.79
2023-05-16T21:05:54.252Z,14.77
2023-05-16T21:08:24.754Z,14.75
2023-05-16T21:10:55.269Z,14.73
2023-05-16T21:13:25.931Z,14.72
2023-05-16T21:15:56.501Z,14.75
2023-05-16T21:18:27.453Z,14.77
2023-05-16T21:20:58.046Z,14.77
2023-05-16T21:23:28.724Z,14.75
2023-05-16T21:25:59.289Z,14.74
2023-05-16T21:28:31.183Z,14.72
2023-05-16T21:31:03.331Z,14.70
2023-05-16T21:33:33.853Z,14.67
2023-05-16T21:36:04.761Z,14.64
2023-05-16T21:38:35.284Z,14.62
2023-05-16T21:41:05.943Z,14.64
2023-05-16T21:43:36.458Z,14.65
2023-05-16T21:46:07.118Z,14.64
2023-05-16T21:48:38.330Z,14.62
2023-05-16T21:51:09.098Z,14.61
2023-05-16T21:53:39.588Z,14.61
2023-05-16T21:56:10.186Z,14.60
2023-05-16T21:58:42.389Z,14.58
2023-05-16T22:01:16.691Z,14.55
2023-05-16T22:03:47.437Z,14.50
2023-05-16T22:06:18.177Z,14.50
2023-05-16T22:08:48.732Z,14.51
2023-05-16T22:11:19.237Z,14.50
2023-05-16T22:13:50.708Z,14.48
2023-05-16T22:16:21.900Z,14.48
2023-05-16T22:18:52.760Z,14.47
2023-05-16T22:21:23.630Z,14.45
2023-05-16T22:23:54.579Z,14.43
2023-05-16T22:26:25.102Z,14.41
2023-05-16T22:28:55.616Z,14.41
2023-05-16T22:31:26.285Z,14.41
2023-05-16T22:33:56.868Z,14.39
2023-05-16T22:36:27.441Z,14.38
2023-05-16T22:38:58.147Z,14.37
2023-05-16T22:41:29.143Z,14.36
2023-05-16T22:43:59.776Z,14.35
2023-05-16T22:46:30.447Z,14.32
2023-05-16T22:49:00.991Z,14.27
2023-05-16T22:51:31.571Z,14.25
2023-05-16T22:54:02.054Z,14.24
2023-05-16T22:56:32.756Z,14.23
2023-05-16T22:59:03.269Z,14.23
2023-05-16T23:01:33.835Z,14.22
2023-05-16T23:04:04.909Z,14.21
2023-05-16T23:06:35.658Z,14.21
2023-05-16T23:09:06.336Z,14.18
2023-05-16T23:11:36.944Z,14.17
2023-05-16T23:14:07.419Z,14.18
2023-05-16T23:16:37.925Z,14.20
2023-05-16T23:19:09.828Z,14.19
2023-05-16T23:21:40.617Z,14.18
2023-05-16T23:24:11.213Z,14.16
2023-05-16T23:26:41.747Z,14.16
2023-05-16T23:29:12.583Z,14.17
2023-05-16T23:31:43.202Z,14.17
2023-05-16T23:34:13.719Z,14.18
2023-05-16T23:36:44.248Z,14.21
2023-05-16T23:39:14.732Z,14.22
2023-05-16T23:41:45.305Z,14.20
2023-05-16T23:44:15.860Z,14.18
2023-05-16T23:46:46.368Z,14.16
2023-05-16T23:49:17.301Z,14.15
2023-05-16T23:51:57.527Z,14.13
2023-05-16T23:54:28.922Z,14.12
2023-05-16T23:56:59.414Z,14.12
2023-05-16T23:59:29.906Z,14.13
